sensor_id;sensor_type;location;lat;lon;timestamp;pressure;altitude;pressure_sealevel;temperature;humidity
65614;BME280;52283;49.292;10.572;2022-12-18T00:01:57;97647.78;;;-11.76;100.00
65614;BME280;52283;49.292;10.572;2022-12-18T00:04:26;97641.19;;;-11.66;100.00
65614;BME280;52283;49.292;10.572;2022-12-18T00:06:52;97638.81;;;-11.68;100.00
65614;BME280;52283;49.292;10.572;2022-12-18T00:09:19;97633.75;;;-11.69;100.00
65614;BME280;52283;49.292;10.572;2022-12-18T00:11:46;97635.94;;;-11.62;100.00
65614;BME280;52283;49.292;10.572;2022-12-18T00:14:14;97631.13;;;-11.78;100.00
65614;BME280;52283;49.292;10.572;2022-12-18T00:16:43;97633.44;;;-11.88;100.00
65614;BME280;52283;49.292;10.572;2022-12-18T00:19:10;97639.78;;;-12.05;100.00
65614;BME280;52283;49.292;10.572;2022-12-18T00:21:40;97642.19;;;-12.12;100.00
65614;BME280;52283;49.292;10.572;2022-12-18T00:24:06;97640.59;;;-12.13;100.00
65614;BME280;52283;49.292;10.572;2022-12-18T00:26:34;97644.50;;;-12.02;100.00
65614;BME280;52283;49.292;10.572;2022-12-18T00:29:04;97640.75;;;-12.10;100.00
65614;BME280;52283;49.292;10.572;2022-12-18T00:31:33;97636.91;;;-12.09;100.00
65614;BME280;52283;49.292;10.572;2022-12-18T00:34:00;97643.97;;;-12.16;100.00
65614;BME280;52283;49.292;10.572;2022-12-18T00:36:28;97644.56;;;-12.11;100.00
65614;BME280;52283;49.292;10.572;2022-12-18T00:38:56;97644.56;;;-12.11;100.00
65614;BME280;52283;49.292;10.572;2022-12-18T00:41:23;97652.63;;;-12.11;100.00
65614;BME280;52283;49.292;10.572;2022-12-18T00:44:09;97657.97;;;-12.23;100.00
65614;BME280;52283;49.292;10.572;2022-12-18T00:46:38;97653.84;;;-12.29;100.00
65614;BME280;52283;49.292;10.572;2022-12-18T00:49:05;97653.84;;;-12.29;100.00
65614;BME280;52283;49.292;10.572;2022-12-18T00:51:31;97664.34;;;-12.36;100.00
65614;BME280;52283;49.292;10.572;2022-12-18T00:53:58;97677.75;;;-12.48;100.00
65614;BME280;52283;49.292;10.572;2022-12-18T00:56:24;97672.22;;;-12.60;100.00
65614;BME280;52283;49.292;10.572;2022-12-18T00:58:51;97677.28;;;-12.59;100.00
65614;BME280;52283;49.292;10.572;2022-12-18T01:01:17;97678.69;;;-12.53;100.00
65614;BME280;52283;49.292;10.572;2022-12-18T01:03:45;97677.44;;;-12.55;100.00
65614;BME280;52283;49.292;10.572;2022-12-18T01:06:13;97686.28;;;-12.46;100.00
65614;BME280;52283;49.292;10.572;2022-12-18T01:08:40;97682.16;;;-12.44;100.00
65614;BME280;52283;49.292;10.572;2022-12-18T01:11:08;97684.22;;;-12.49;100.00
65614;BME280;52283;49.292;10.572;2022-12-18T01:13:35;97678.25;;;-12.64;100.00
65614;BME280;52283;49.292;10.572;2022-12-18T01:16:02;97676.69;;;-12.65;100.00
65614;BME280;52283;49.292;10.572;2022-12-18T01:18:28;97687.78;;;-12.75;100.00
65614;BME280;52283;49.292;10.572;2022-12-18T01:20:56;97692.28;;;-12.87;100.00
65614;BME280;52283;49.292;10.572;2022-12-18T01:23:22;97697.03;;;-12.84;100.00
65614;BME280;52283;49.292;10.572;2022-12-18T01:25:49;97694.75;;;-12.65;100.00
65614;BME280;52283;49.292;10.572;2022-12-18T01:28:15;97689.44;;;-12.44;100.00
65614;BME280;52283;49.292;10.572;2022-12-18T01:30:42;97690.19;;;-12.35;100.00
65614;BME280;52283;49.292;10.572;2022-12-18T01:33:08;97689.72;;;-12.37;100.00
65614;BME280;52283;49.292;10.572;2022-12-18T01:35:40;97706.00;;;-12.34;100.00
65614;BME280;52283;49.292;10.572;2022-12-18T01:38:08;97721.56;;;-12.39;100.00
65614;BME280;52283;49.292;10.572;2022-12-18T01:40:34;97721.63;;;-12.56;100.00
65614;BME280;52283;49.292;10.572;2022-12-18T01:43:01;97711.25;;;-12.37;100.00
65614;BME280;52283;49.292;10.572;2022-12-18T01:45:28;97712.63;;;-11.93;100.00
65614;BME280;52283;49.292;10.572;2022-12-18T01:47:56;97710.22;;;-11.86;100.00
65614;BME280;52283;49.292;10.572;2022-12-18T01:50:27;97713.88;;;-11.49;100.00
65614;BME280;52283;49.292;10.572;2022-12-18T01:52:56;97708.34;;;-11.94;100.00
65614;BME280;52283;49.292;10.572;2022-12-18T01:55:27;97706.53;;;-11.81;100.00
65614;BME280;52283;49.292;10.572;2022-12-18T01:57:55;97705.25;;;-11.63;100.00
65614;BME280;52283;49.292;10.572;2022-12-18T02:00:22;97702.41;;;-11.46;100.00
65614;BME280;52283;49.292;10.572;2022-12-18T02:02:50;97705.16;;;-11.13;100.00
65614;BME280;52283;49.292;10.572;2022-12-18T02:05:19;97703.66;;;-10.89;100.00
65614;BME280;52283;49.292;10.572;2022-12-18T02:07:56;97704.94;;;-10.74;100.00
65614;BME280;52283;49.292;10.572;2022-12-18T02:10:32;97708.78;;;-10.63;100.00
65614;BME280;52283;49.292;10.572;2022-12-18T02:13:08;97716.81;;;-10.55;100.00
65614;BME280;52283;49.292;10.572;2022-12-18T02:15:41;97711.03;;;-10.65;100.00
65614;BME280;52283;49.292;10.572;2022-12-18T02:18:12;97716.88;;;-10.75;100.00
65614;BME280;52283;49.292;10.572;2022-12-18T02:20:43;97710.00;;;-11.06;100.00
65614;BME280;52283;49.292;10.572;2022-12-18T02:23:22;97701.50;;;-10.96;100.00
65614;BME280;52283;49.292;10.572;2022-12-18T02:26:07;97705.25;;;-10.88;100.00
65614;BME280;52283;49.292;10.572;2022-12-18T02:28:40;97700.75;;;-10.84;100.00
65614;BME280;52283;49.292;10.572;2022-12-18T02:31:11;97699.88;;;-10.76;100.00
65614;BME280;52283;49.292;10.572;2022-12-18T02:33:40;97698.66;;;-10.66;100.00
65614;BME280;52283;49.292;10.572;2022-12-18T02:36:09;97700.28;;;-10.98;100.00
65614;BME280;52283;49.292;10.572;2022-12-18T02:38:37;97702.22;;;-10.87;100.00
65614;BME280;52283;49.292;10.572;2022-12-18T02:41:07;97705.03;;;-10.83;100.00
65614;BME280;52283;49.292;10.572;2022-12-18T02:43:33;97695.38;;;-10.72;100.00
65614;BME280;52283;49.292;10.572;2022-12-18T02:46:01;97700.91;;;-10.81;100.00
65614;BME280;52283;49.292;10.572;2022-12-18T02:48:47;97706.47;;;-10.98;100.00
65614;BME280;52283;49.292;10.572;2022-12-18T02:51:20;97703.44;;;-10.96;100.00
65614;BME280;52283;49.292;10.572;2022-12-18T02:53:52;97689.03;;;-10.88;100.00
65614;BME280;52283;49.292;10.572;2022-12-18T02:56:26;97694.44;;;-10.88;100.00
65614;BME280;52283;49.292;10.572;2022-12-18T02:58:59;97707.50;;;-10.90;100.00
65614;BME280;52283;49.292;10.572;2022-12-18T03:01:31;97709.19;;;-10.86;100.00
65614;BME280;52283;49.292;10.572;2022-12-18T03:04:18;97697.44;;;-11.02;100.00
65614;BME280;52283;49.292;10.572;2022-12-18T03:07:02;97689.16;;;-10.85;100.00
65614;BME280;52283;49.292;10.572;2022-12-18T03:09:33;97693.59;;;-10.68;100.00
65614;BME280;52283;49.292;10.572;2022-12-18T03:12:07;97701.81;;;-10.64;100.00
65614;BME280;52283;49.292;10.572;2022-12-18T03:14:54;97704.88;;;-10.54;100.00
65614;BME280;52283;49.292;10.572;2022-12-18T03:17:27;97691.81;;;-10.52;100.00
65614;BME280;52283;49.292;10.572;2022-12-18T03:19:56;97707.16;;;-10.31;100.00
65614;BME280;52283;49.292;10.572;2022-12-18T03:22:27;97717.06;;;-10.11;100.00
65614;BME280;52283;49.292;10.572;2022-12-18T03:24:56;97711.84;;;-10.04;100.00
65614;BME280;52283;49.292;10.572;2022-12-18T03:27:26;97704.41;;;-9.82;100.00
65614;BME280;52283;49.292;10.572;2022-12-18T03:30:01;97700.66;;;-9.66;100.00
65614;BME280;52283;49.292;10.572;2022-12-18T03:32:38;97699.00;;;-9.70;100.00
65614;BME280;52283;49.292;10.572;2022-12-18T03:35:07;97710.97;;;-9.31;100.00
65614;BME280;52283;49.292;10.572;2022-12-18T03:37:34;97707.16;;;-9.42;100.00
65614;BME280;52283;49.292;10.572;2022-12-18T03:40:01;97707.56;;;-9.28;100.00
65614;BME280;52283;49.292;10.572;2022-12-18T03:42:33;97705.41;;;-9.23;100.00
65614;BME280;52283;49.292;10.572;2022-12-18T03:45:09;97694.19;;;-9.37;100.00
65614;BME280;52283;49.292;10.572;2022-12-18T03:47:40;97688.88;;;-9.33;100.00
65614;BME280;52283;49.292;10.572;2022-12-18T03:50:12;97685.50;;;-9.42;100.00
65614;BME280;52283;49.292;10.572;2022-12-18T03:52:44;97688.19;;;-9.30;100.00
65614;BME280;52283;49.292;10.572;2022-12-18T03:55:12;97688.13;;;-9.18;100.00
65614;BME280;52283;49.292;10.572;2022-12-18T03:57:42;97693.78;;;-9.23;100.00
65614;BME280;52283;49.292;10.572;2022-12-18T04:00:12;97692.59;;;-9.38;100.00
65614;BME280;52283;49.292;10.572;2022-12-18T04:02:42;97695.28;;;-9.26;100.00
65614;BME280;52283;49.292;10.572;2022-12-18T04:05:11;97685.75;;;-9.19;100.00
65614;BME280;52283;49.292;10.572;2022-12-18T04:07:39;97704.38;;;-9.18;100.00
65614;BME280;52283;49.292;10.572;2022-12-18T04:10:07;97707.56;;;-9.28;100.00
65614;BME280;52283;49.292;10.572;2022-12-18T04:12:37;97718.88;;;-9.38;100.00
65614;BME280;52283;49.292;10.572;2022-12-18T04:15:06;97719.47;;;-9.17;100.00
65614;BME280;52283;49.292;10.572;2022-12-18T04:17:33;97727.94;;;-9.06;100.00
65614;BME280;52283;49.292;10.572;2022-12-18T04:19:59;97726.09;;;-9.02;100.00
65614;BME280;52283;49.292;10.572;2022-12-18T04:22:26;97723.47;;;-9.27;100.00
65614;BME280;52283;49.292;10.572;2022-12-18T04:24:52;97720.41;;;-9.13;100.00
65614;BME280;52283;49.292;10.572;2022-12-18T04:27:18;97727.22;;;-9.43;100.00
65614;BME280;52283;49.292;10.572;2022-12-18T04:29:45;97726.63;;;-9.25;100.00
65614;BME280;52283;49.292;10.572;2022-12-18T04:32:13;97725.03;;;-9.13;100.00
65614;BME280;52283;49.292;10.572;2022-12-18T04:34:39;97724.88;;;-9.05;100.00
65614;BME280;52283;49.292;10.572;2022-12-18T04:37:06;97735.78;;;-9.01;100.00
65614;BME280;52283;49.292;10.572;2022-12-18T04:39:33;97733.53;;;-8.99;100.00
65614;BME280;52283;49.292;10.572;2022-12-18T04:42:01;97725.91;;;-9.09;100.00
65614;BME280;52283;49.292;10.572;2022-12-18T04:44:27;97719.78;;;-9.06;100.00
65614;BME280;52283;49.292;10.572;2022-12-18T04:46:53;97734.63;;;-8.88;100.00
65614;BME280;52283;49.292;10.572;2022-12-18T04:49:22;97733.16;;;-9.13;100.00
65614;BME280;52283;49.292;10.572;2022-12-18T04:51:48;97735.34;;;-9.43;100.00
65614;BME280;52283;49.292;10.572;2022-12-18T04:54:15;97727.91;;;-9.34;100.00
65614;BME280;52283;49.292;10.572;2022-12-18T04:56:41;97730.03;;;-9.28;100.00
65614;BME280;52283;49.292;10.572;2022-12-18T04:59:08;97728.28;;;-9.20;100.00
65614;BME280;52283;49.292;10.572;2022-12-18T05:01:34;97724.41;;;-9.35;100.00
65614;BME280;52283;49.292;10.572;2022-12-18T05:04:01;97722.88;;;-9.20;100.00
65614;BME280;52283;49.292;10.572;2022-12-18T05:06:29;97729.66;;;-9.14;100.00
65614;BME280;52283;49.292;10.572;2022-12-18T05:08:55;97721.81;;;-9.03;100.00
65614;BME280;52283;49.292;10.572;2022-12-18T05:11:22;97725.09;;;-8.82;100.00
65614;BME280;52283;49.292;10.572;2022-12-18T05:13:48;97722.97;;;-9.16;100.00
65614;BME280;52283;49.292;10.572;2022-12-18T05:16:15;97736.84;;;-9.58;100.00
65614;BME280;52283;49.292;10.572;2022-12-18T05:18:42;97743.84;;;-9.17;100.00
65614;BME280;52283;49.292;10.572;2022-12-18T05:21:08;97738.16;;;-9.40;100.00
65614;BME280;52283;49.292;10.572;2022-12-18T05:23:36;97743.81;;;-9.05;100.00
65614;BME280;52283;49.292;10.572;2022-12-18T05:26:05;97743.81;;;-9.45;100.00
65614;BME280;52283;49.292;10.572;2022-12-18T05:28:34;97755.53;;;-9.29;100.00
65614;BME280;52283;49.292;10.572;2022-12-18T05:31:02;97748.09;;;-9.32;100.00
65614;BME280;52283;49.292;10.572;2022-12-18T05:33:31;97746.78;;;-9.10;100.00
65614;BME280;52283;49.292;10.572;2022-12-18T05:36:00;97746.63;;;-9.01;100.00
65614;BME280;52283;49.292;10.572;2022-12-18T05:38:29;97738.72;;;-8.94;100.00
65614;BME280;52283;49.292;10.572;2022-12-18T05:40:57;97726.78;;;-9.05;100.00
65614;BME280;52283;49.292;10.572;2022-12-18T05:43:25;97720.78;;;-8.99;100.00
65614;BME280;52283;49.292;10.572;2022-12-18T05:45:52;97726.19;;;-8.99;100.00
65614;BME280;52283;49.292;10.572;2022-12-18T05:48:19;97720.84;;;-9.11;100.00
65614;BME280;52283;49.292;10.572;2022-12-18T05:50:47;97717.63;;;-9.01;100.00
65614;BME280;52283;49.292;10.572;2022-12-18T05:53:15;97713.69;;;-9.03;100.00
65614;BME280;52283;49.292;10.572;2022-12-18T05:55:43;97722.09;;;-9.20;100.00
65614;BME280;52283;49.292;10.572;2022-12-18T05:58:12;97725.97;;;-9.34;100.00
65614;BME280;52283;49.292;10.572;2022-12-18T06:00:40;97730.19;;;-9.08;100.00
65614;BME280;52283;49.292;10.572;2022-12-18T06:03:08;97746.72;;;-8.98;100.00
65614;BME280;52283;49.292;10.572;2022-12-18T06:05:36;97752.53;;;-9.11;100.00
65614;BME280;52283;49.292;10.572;2022-12-18T06:08:03;97755.19;;;-8.99;100.00
65614;BME280;52283;49.292;10.572;2022-12-18T06:10:30;97762.00;;;-9.05;100.00
65614;BME280;52283;49.292;10.572;2022-12-18T06:12:56;97767.22;;;-8.84;100.00
65614;BME280;52283;49.292;10.572;2022-12-18T06:15:24;97757.34;;;-8.93;100.00
65614;BME280;52283;49.292;10.572;2022-12-18T06:17:51;97756.38;;;-9.12;100.00
65614;BME280;52283;49.292;10.572;2022-12-18T06:20:17;97753.00;;;-9.22;100.00
65614;BME280;52283;49.292;10.572;2022-12-18T06:22:44;97756.94;;;-9.07;100.00
65614;BME280;52283;49.292;10.572;2022-12-18T06:25:11;97768.28;;;-8.89;100.00
65614;BME280;52283;49.292;10.572;2022-12-18T06:27:37;97764.13;;;-8.99;100.00
65614;BME280;52283;49.292;10.572;2022-12-18T06:30:05;97763.41;;;-8.96;100.00
65614;BME280;52283;49.292;10.572;2022-12-18T06:32:33;97763.13;;;-9.06;100.00
65614;BME280;52283;49.292;10.572;2022-12-18T06:35:00;97768.84;;;-8.96;100.00
65614;BME280;52283;49.292;10.572;2022-12-18T06:37:26;97763.31;;;-8.99;100.00
65614;BME280;52283;49.292;10.572;2022-12-18T06:39:53;97769.06;;;-8.88;100.00
65614;BME280;52283;49.292;10.572;2022-12-18T06:42:22;97763.44;;;-8.68;100.00
65614;BME280;52283;49.292;10.572;2022-12-18T06:44:49;97761.22;;;-8.78;100.00
65614;BME280;52283;49.292;10.572;2022-12-18T06:47:15;97766.19;;;-8.80;100.00
65614;BME280;52283;49.292;10.572;2022-12-18T06:49:44;97765.91;;;-8.90;100.00
65614;BME280;52283;49.292;10.572;2022-12-18T06:52:10;97766.94;;;-8.67;100.00
65614;BME280;52283;49.292;10.572;2022-12-18T06:54:37;97770.97;;;-8.61;100.00
65614;BME280;52283;49.292;10.572;2022-12-18T06:57:03;97774.03;;;-8.63;100.00
65614;BME280;52283;49.292;10.572;2022-12-18T06:59:29;97771.84;;;-8.57;100.00
65614;BME280;52283;49.292;10.572;2022-12-18T07:01:56;97770.91;;;-8.33;100.00
65614;BME280;52283;49.292;10.572;2022-12-18T07:04:27;97766.03;;;-8.43;100.00
65614;BME280;52283;49.292;10.572;2022-12-18T07:06:55;97759.47;;;-8.42;100.00
65614;BME280;52283;49.292;10.572;2022-12-18T07:09:22;97768.66;;;-8.47;100.00
65614;BME280;52283;49.292;10.572;2022-12-18T07:11:49;97758.84;;;-8.51;100.00
65614;BME280;52283;49.292;10.572;2022-12-18T07:14:15;97753.78;;;-8.37;100.00
65614;BME280;52283;49.292;10.572;2022-12-18T07:16:42;97764.97;;;-8.39;100.00
65614;BME280;52283;49.292;10.572;2022-12-18T07:19:08;97770.22;;;-8.46;100.00
65614;BME280;52283;49.292;10.572;2022-12-18T07:21:35;97770.41;;;-8.39;100.00
65614;BME280;52283;49.292;10.572;2022-12-18T07:24:03;97773.72;;;-8.30;100.00
65614;BME280;52283;49.292;10.572;2022-12-18T07:26:30;97778.88;;;-8.24;100.00
65614;BME280;52283;49.292;10.572;2022-12-18T07:28:56;97785.72;;;-7.99;100.00
65614;BME280;52283;49.292;10.572;2022-12-18T07:31:24;97782.56;;;-8.01;100.00
65614;BME280;52283;49.292;10.572;2022-12-18T07:33:51;97793.59;;;-8.10;100.00
65614;BME280;52283;49.292;10.572;2022-12-18T07:36:18;97785.47;;;-8.10;100.00
65614;BME280;52283;49.292;10.572;2022-12-18T07:38:47;97789.41;;;-8.07;100.00
65614;BME280;52283;49.292;10.572;2022-12-18T07:41:15;97787.59;;;-7.87;100.00
65614;BME280;52283;49.292;10.572;2022-12-18T07:43:42;97789.50;;;-8.04;100.00
65614;BME280;52283;49.292;10.572;2022-12-18T07:46:09;97798.09;;;-7.86;100.00
65614;BME280;52283;49.292;10.572;2022-12-18T07:48:36;97799.72;;;-7.97;100.00
65614;BME280;52283;49.292;10.572;2022-12-18T07:51:04;97807.09;;;-7.82;100.00
65614;BME280;52283;49.292;10.572;2022-12-18T07:53:31;97804.72;;;-7.68;100.00
65614;BME280;52283;49.292;10.572;2022-12-18T07:55:59;97813.91;;;-7.72;100.00
65614;BME280;52283;49.292;10.572;2022-12-18T07:58:29;97807.19;;;-7.62;100.00
65614;BME280;52283;49.292;10.572;2022-12-18T08:01:02;97818.38;;;-7.64;100.00
65614;BME280;52283;49.292;10.572;2022-12-18T08:03:29;97824.59;;;-7.63;100.00
65614;BME280;52283;49.292;10.572;2022-12-18T08:05:58;97814.78;;;-7.52;100.00
65614;BME280;52283;49.292;10.572;2022-12-18T08:08:25;97820.75;;;-7.47;100.00
65614;BME280;52283;49.292;10.572;2022-12-18T08:10:51;97819.69;;;-7.42;100.00
65614;BME280;52283;49.292;10.572;2022-12-18T08:13:18;97822.50;;;-7.54;100.00
65614;BME280;52283;49.292;10.572;2022-12-18T08:15:46;97820.56;;;-7.54;100.00
65614;BME280;52283;49.292;10.572;2022-12-18T08:18:12;97821.25;;;-7.57;100.00
65614;BME280;52283;49.292;10.572;2022-12-18T08:20:38;97815.03;;;-7.26;100.00
65614;BME280;52283;49.292;10.572;2022-12-18T08:23:08;97814.81;;;-7.17;100.00
65614;BME280;52283;49.292;10.572;2022-12-18T08:25:34;97810.53;;;-7.18;100.00
65614;BME280;52283;49.292;10.572;2022-12-18T08:28:01;97805.78;;;-7.05;100.00
65614;BME280;52283;49.292;10.572;2022-12-18T08:30:27;97808.16;;;-7.20;100.00
65614;BME280;52283;49.292;10.572;2022-12-18T08:32:55;97802.53;;;-7.11;100.00
65614;BME280;52283;49.292;10.572;2022-12-18T08:35:21;97806.47;;;-7.09;100.00
65614;BME280;52283;49.292;10.572;2022-12-18T08:37:48;97806.22;;;-7.19;100.00
65614;BME280;52283;49.292;10.572;2022-12-18T08:40:15;97798.66;;;-7.10;100.00
65614;BME280;52283;49.292;10.572;2022-12-18T08:42:41;97791.47;;;-7.02;100.00
65614;BME280;52283;49.292;10.572;2022-12-18T08:45:25;97793.63;;;-6.73;100.00
65614;BME280;52283;49.292;10.572;2022-12-18T08:47:51;97805.50;;;-6.81;100.00
65614;BME280;52283;49.292;10.572;2022-12-18T08:50:19;97799.84;;;-6.72;100.00
65614;BME280;52283;49.292;10.572;2022-12-18T08:52:46;97788.97;;;-6.92;100.00
65614;BME280;52283;49.292;10.572;2022-12-18T08:55:12;97798.63;;;-6.75;100.00
65614;BME280;52283;49.292;10.572;2022-12-18T08:57:39;97801.22;;;-6.82;100.00
65614;BME280;52283;49.292;10.572;2022-12-18T09:00:06;97794.13;;;-6.67;100.00
65614;BME280;52283;49.292;10.572;2022-12-18T09:02:33;97798.06;;;-6.84;100.00
65614;BME280;52283;49.292;10.572;2022-12-18T09:05:00;97790.47;;;-6.94;100.00
65614;BME280;52283;49.292;10.572;2022-12-18T09:07:28;97790.34;;;-6.82;100.00
65614;BME280;52283;49.292;10.572;2022-12-18T09:09:54;97791.75;;;-6.69;100.00
65614;BME280;52283;49.292;10.572;2022-12-18T09:12:20;97790.41;;;-6.40;100.00
65614;BME280;52283;49.292;10.572;2022-12-18T09:14:47;97790.19;;;-6.51;100.00
65614;BME280;52283;49.292;10.572;2022-12-18T09:17:13;97799.56;;;-6.48;100.00
65614;BME280;52283;49.292;10.572;2022-12-18T09:19:40;97805.16;;;-6.60;100.00
65614;BME280;52283;49.292;10.572;2022-12-18T09:22:06;97798.50;;;-6.82;100.00
65614;BME280;52283;49.292;10.572;2022-12-18T09:24:34;97800.56;;;-6.56;100.00
65614;BME280;52283;49.292;10.572;2022-12-18T09:27:00;97799.34;;;-6.20;100.00
65614;BME280;52283;49.292;10.572;2022-12-18T09:29:27;97805.44;;;-6.46;100.00
65614;BME280;52283;49.292;10.572;2022-12-18T09:31:53;97793.44;;;-6.64;100.00
65614;BME280;52283;49.292;10.572;2022-12-18T09:34:20;97795.56;;;-6.35;100.00
65614;BME280;52283;49.292;10.572;2022-12-18T09:36:47;97795.06;;;-6.60;100.00
65614;BME280;52283;49.292;10.572;2022-12-18T09:39:13;97789.63;;;-6.40;100.00
65614;BME280;52283;49.292;10.572;2022-12-18T09:41:47;97789.03;;;-6.30;100.00
65614;BME280;52283;49.292;10.572;2022-12-18T09:44:22;97785.16;;;-6.29;100.00
65614;BME280;52283;49.292;10.572;2022-12-18T09:46:53;97798.53;;;-6.21;100.00
65614;BME280;52283;49.292;10.572;2022-12-18T09:49:26;97787.88;;;-6.29;100.00
65614;BME280;52283;49.292;10.572;2022-12-18T09:51:58;97787.00;;;-6.14;100.00
65614;BME280;52283;49.292;10.572;2022-12-18T09:54:31;97784.00;;;-6.28;100.00
65614;BME280;52283;49.292;10.572;2022-12-18T09:57:00;97781.00;;;-6.23;100.00
65614;BME280;52283;49.292;10.572;2022-12-18T09:59:30;97784.72;;;-6.31;100.00
65614;BME280;52283;49.292;10.572;2022-12-18T10:01:58;97771.63;;;-6.26;100.00
65614;BME280;52283;49.292;10.572;2022-12-18T10:04:32;97768.25;;;-6.19;100.00
65614;BME280;52283;49.292;10.572;2022-12-18T10:07:03;97781.81;;;-6.00;100.00
65614;BME280;52283;49.292;10.572;2022-12-18T10:09:37;97777.69;;;-6.13;100.00
65614;BME280;52283;49.292;10.572;2022-12-18T10:12:16;97765.03;;;-5.79;100.00
65614;BME280;52283;49.292;10.572;2022-12-18T10:14:51;97773.13;;;-5.82;100.00
65614;BME280;52283;49.292;10.572;2022-12-18T10:17:25;97783.22;;;-5.60;100.00
65614;BME280;52283;49.292;10.572;2022-12-18T10:19:56;97777.97;;;-5.72;100.00
65614;BME280;52283;49.292;10.572;2022-12-18T10:22:44;97780.56;;;-5.57;100.00
65614;BME280;52283;49.292;10.572;2022-12-18T10:25:20;97787.78;;;-5.41;100.00
65614;BME280;52283;49.292;10.572;2022-12-18T10:27:51;97785.94;;;-5.83;100.00
65614;BME280;52283;49.292;10.572;2022-12-18T10:30:20;97792.44;;;-5.42;100.00
65614;BME280;52283;49.292;10.572;2022-12-18T10:32:47;97789.28;;;-5.70;100.00
65614;BME280;52283;49.292;10.572;2022-12-18T10:35:17;97794.53;;;-5.58;100.00
65614;BME280;52283;49.292;10.572;2022-12-18T10:38:06;97795.91;;;-5.45;100.00
65614;BME280;52283;49.292;10.572;2022-12-18T10:40:47;97789.56;;;-5.26;100.00
65614;BME280;52283;49.292;10.572;2022-12-18T10:43:19;97785.31;;;-5.50;100.00
65614;BME280;52283;49.292;10.572;2022-12-18T10:45:59;97773.56;;;-5.80;100.00
65614;BME280;52283;49.292;10.572;2022-12-18T10:48:26;97776.09;;;-5.42;100.00
65614;BME280;52283;49.292;10.572;2022-12-18T10:50:53;97776.59;;;-5.36;100.00
65614;BME280;52283;49.292;10.572;2022-12-18T10:53:24;97768.59;;;-5.48;100.00
65614;BME280;52283;49.292;10.572;2022-12-18T10:55:52;97768.84;;;-5.04;100.00
65614;BME280;52283;49.292;10.572;2022-12-18T10:58:24;97755.91;;;-4.81;100.00
65614;BME280;52283;49.292;10.572;2022-12-18T11:01:09;97747.81;;;-5.04;100.00
65614;BME280;52283;49.292;10.572;2022-12-18T11:03:36;97747.28;;;-5.43;100.00
65614;BME280;52283;49.292;10.572;2022-12-18T11:06:06;97748.81;;;-5.19;100.00
65614;BME280;52283;49.292;10.572;2022-12-18T11:08:33;97744.78;;;-4.69;100.00
65614;BME280;52283;49.292;10.572;2022-12-18T11:11:00;97757.25;;;-4.68;100.00
65614;BME280;52283;49.292;10.572;2022-12-18T11:13:29;97749.72;;;-4.44;100.00
65614;BME280;52283;49.292;10.572;2022-12-18T11:15:57;97745.09;;;-4.40;100.00
65614;BME280;52283;49.292;10.572;2022-12-18T11:18:27;97743.22;;;-4.33;100.00
65614;BME280;52283;49.292;10.572;2022-12-18T11:20:56;97747.88;;;-5.00;100.00
65614;BME280;52283;49.292;10.572;2022-12-18T11:23:24;97750.63;;;-5.27;100.00
65614;BME280;52283;49.292;10.572;2022-12-18T11:25:53;97754.69;;;-4.87;100.00
65614;BME280;52283;49.292;10.572;2022-12-18T11:28:46;97756.00;;;-5.04;100.00
65614;BME280;52283;49.292;10.572;2022-12-18T11:31:23;97752.78;;;-5.66;100.00
65614;BME280;52283;49.292;10.572;2022-12-18T11:33:54;97749.97;;;-5.46;100.00
65614;BME280;52283;49.292;10.572;2022-12-18T11:36:23;97728.94;;;-5.19;100.00
65614;BME280;52283;49.292;10.572;2022-12-18T11:38:52;97730.56;;;-5.15;100.00
65614;BME280;52283;49.292;10.572;2022-12-18T11:41:24;97736.53;;;-5.32;100.00
65614;BME280;52283;49.292;10.572;2022-12-18T11:44:16;97732.47;;;-5.45;100.00
65614;BME280;52283;49.292;10.572;2022-12-18T11:46:49;97720.47;;;-5.41;100.00
65614;BME280;52283;49.292;10.572;2022-12-18T11:49:22;97734.75;;;-5.47;100.00
65614;BME280;52283;49.292;10.572;2022-12-18T11:51:52;97713.38;;;-5.19;100.00
65614;BME280;52283;49.292;10.572;2022-12-18T11:54:21;97717.94;;;-5.27;100.00
65614;BME280;52283;49.292;10.572;2022-12-18T11:56:51;97708.28;;;-4.91;100.00
65614;BME280;52283;49.292;10.572;2022-12-18T11:59:29;97717.88;;;-4.70;100.00
65614;BME280;52283;49.292;10.572;2022-12-18T12:02:04;97717.59;;;-5.22;100.00
65614;BME280;52283;49.292;10.572;2022-12-18T12:04:50;97713.13;;;-5.07;100.00
65614;BME280;52283;49.292;10.572;2022-12-18T12:07:33;97722.88;;;-5.06;100.00
65614;BME280;52283;49.292;10.572;2022-12-18T12:10:09;97719.75;;;-5.08;100.00
65614;BME280;52283;49.292;10.572;2022-12-18T12:12:52;97723.19;;;-4.81;100.00
65614;BME280;52283;49.292;10.572;2022-12-18T12:15:30;97708.59;;;-5.26;100.00
65614;BME280;52283;49.292;10.572;2022-12-18T12:18:08;97708.84;;;-4.78;100.00
65614;BME280;52283;49.292;10.572;2022-12-18T12:20:47;97701.09;;;-4.72;100.00
65614;BME280;52283;49.292;10.572;2022-12-18T12:23:23;97710.47;;;-4.70;100.00
65614;BME280;52283;49.292;10.572;2022-12-18T12:25:57;97708.91;;;-5.01;100.00
65614;BME280;52283;49.292;10.572;2022-12-18T12:28:36;97712.31;;;-5.11;100.00
65614;BME280;52283;49.292;10.572;2022-12-18T12:31:14;97715.69;;;-4.91;100.00
65614;BME280;52283;49.292;10.572;2022-12-18T12:33:52;97716.56;;;-4.80;100.00
65614;BME280;52283;49.292;10.572;2022-12-18T12:36:30;97708.38;;;-5.13;100.00
65614;BME280;52283;49.292;10.572;2022-12-18T12:39:06;97700.94;;;-4.86;100.00
65614;BME280;52283;49.292;10.572;2022-12-18T12:41:35;97695.88;;;-4.51;100.00
65614;BME280;52283;49.292;10.572;2022-12-18T12:44:22;97697.72;;;-4.21;100.00
65614;BME280;52283;49.292;10.572;2022-12-18T12:46:52;97696.31;;;-4.45;100.00
65614;BME280;52283;49.292;10.572;2022-12-18T12:49:22;97702.09;;;-4.13;100.00
65614;BME280;52283;49.292;10.572;2022-12-18T12:51:57;97699.22;;;-4.27;100.00